sensor_id;sensor_type;location;lat;lon;timestamp;P1;durP1;ratioP1;P2;durP2;ratioP2
71959;SDS011;59832;51.146;14.024;2022-12-07T00:01:32;46.65;;;16.48;;
71959;SDS011;59832;51.146;14.024;2022-12-07T00:04:01;44.58;;;17.05;;
71959;SDS011;59832;51.146;14.024;2022-12-07T00:06:33;40.75;;;15.65;;
71959;SDS011;59832;51.146;14.024;2022-12-07T00:09:01;41.20;;;15.15;;
71959;SDS011;59832;51.146;14.024;2022-12-07T00:11:27;33.70;;;13.47;;
71959;SDS011;59832;51.146;14.024;2022-12-07T00:13:54;36.88;;;14.75;;
71959;SDS011;59832;51.146;14.024;2022-12-07T00:16:23;33.90;;;14.00;;
71959;SDS011;59832;51.146;14.024;2022-12-07T00:18:51;35.90;;;14.07;;
71959;SDS011;59832;51.146;14.024;2022-12-07T00:21:21;31.35;;;14.05;;
71959;SDS011;59832;51.146;14.024;2022-12-07T00:23:50;29.48;;;14.23;;
71959;SDS011;59832;51.146;14.024;2022-12-07T00:26:18;33.88;;;14.90;;
71959;SDS011;59832;51.146;14.024;2022-12-07T00:28:52;34.95;;;14.65;;
71959;SDS011;59832;51.146;14.024;2022-12-07T00:31:21;33.20;;;14.38;;
71959;SDS011;59832;51.146;14.024;2022-12-07T00:33:49;33.15;;;14.27;;
71959;SDS011;59832;51.146;14.024;2022-12-07T00:36:17;27.27;;;13.48;;
71959;SDS011;59832;51.146;14.024;2022-12-07T00:38:52;27.17;;;13.70;;
71959;SDS011;59832;51.146;14.024;2022-12-07T00:41:20;28.75;;;13.48;;
71959;SDS011;59832;51.146;14.024;2022-12-07T00:43:49;29.95;;;14.25;;
71959;SDS011;59832;51.146;14.024;2022-12-07T00:48:43;25.80;;;12.20;;
71959;SDS011;59832;51.146;14.024;2022-12-07T00:51:11;27.10;;;13.73;;
71959;SDS011;59832;51.146;14.024;2022-12-07T00:56:08;22.13;;;11.98;;
71959;SDS011;59832;51.146;14.024;2022-12-07T00:58:36;23.92;;;12.43;;
71959;SDS011;59832;51.146;14.024;2022-12-07T01:01:02;27.70;;;13.35;;
71959;SDS011;59832;51.146;14.024;2022-12-07T01:03:30;23.95;;;12.98;;
71959;SDS011;59832;51.146;14.024;2022-12-07T01:05:57;26.23;;;13.35;;
71959;SDS011;59832;51.146;14.024;2022-12-07T01:08:24;26.33;;;12.82;;
71959;SDS011;59832;51.146;14.024;2022-12-07T01:10:59;27.73;;;12.82;;
71959;SDS011;59832;51.146;14.024;2022-12-07T01:13:26;24.50;;;12.73;;
71959;SDS011;59832;51.146;14.024;2022-12-07T01:15:56;22.55;;;11.73;;
71959;SDS011;59832;51.146;14.024;2022-12-07T01:18:24;23.92;;;12.07;;
71959;SDS011;59832;51.146;14.024;2022-12-07T01:21:07;24.38;;;13.02;;
71959;SDS011;59832;51.146;14.024;2022-12-07T01:23:36;26.38;;;12.70;;
71959;SDS011;59832;51.146;14.024;2022-12-07T01:26:05;23.80;;;12.55;;
71959;SDS011;59832;51.146;14.024;2022-12-07T01:28:33;23.98;;;12.75;;
71959;SDS011;59832;51.146;14.024;2022-12-07T01:31:00;21.67;;;11.38;;
71959;SDS011;59832;51.146;14.024;2022-12-07T01:33:32;24.88;;;12.65;;
71959;SDS011;59832;51.146;14.024;2022-12-07T01:38:49;24.02;;;11.77;;
71959;SDS011;59832;51.146;14.024;2022-12-07T01:41:19;24.10;;;11.45;;
71959;SDS011;59832;51.146;14.024;2022-12-07T01:46:34;25.05;;;11.88;;
71959;SDS011;59832;51.146;14.024;2022-12-07T01:49:01;24.13;;;11.85;;
71959;SDS011;59832;51.146;14.024;2022-12-07T01:51:30;19.35;;;10.82;;
71959;SDS011;59832;51.146;14.024;2022-12-07T01:53:57;22.45;;;11.35;;
71959;SDS011;59832;51.146;14.024;2022-12-07T01:56:24;23.95;;;11.88;;
71959;SDS011;59832;51.146;14.024;2022-12-07T01:58:53;21.70;;;11.32;;
71959;SDS011;59832;51.146;14.024;2022-12-07T02:01:22;22.90;;;12.35;;
71959;SDS011;59832;51.146;14.024;2022-12-07T02:03:49;25.30;;;12.07;;
71959;SDS011;59832;51.146;14.024;2022-12-07T02:06:16;24.20;;;12.10;;
71959;SDS011;59832;51.146;14.024;2022-12-07T02:08:45;23.08;;;11.98;;
71959;SDS011;59832;51.146;14.024;2022-12-07T02:11:13;25.85;;;12.98;;
71959;SDS011;59832;51.146;14.024;2022-12-07T02:13:39;25.77;;;12.63;;
71959;SDS011;59832;51.146;14.024;2022-12-07T02:19:01;28.90;;;12.93;;
71959;SDS011;59832;51.146;14.024;2022-12-07T02:21:55;25.23;;;12.18;;
71959;SDS011;59832;51.146;14.024;2022-12-07T02:24:45;26.77;;;12.63;;
71959;SDS011;59832;51.146;14.024;2022-12-07T02:30:16;28.33;;;12.63;;
71959;SDS011;59832;51.146;14.024;2022-12-07T02:32:51;24.00;;;12.05;;
71959;SDS011;59832;51.146;14.024;2022-12-07T02:38:12;25.38;;;13.07;;
71959;SDS011;59832;51.146;14.024;2022-12-07T02:43:45;24.17;;;11.63;;
71959;SDS011;59832;51.146;14.024;2022-12-07T02:46:15;23.27;;;12.02;;
71959;SDS011;59832;51.146;14.024;2022-12-07T02:48:46;22.13;;;11.77;;
71959;SDS011;59832;51.146;14.024;2022-12-07T02:51:13;21.63;;;11.95;;
71959;SDS011;59832;51.146;14.024;2022-12-07T02:53:41;21.05;;;11.85;;
71959;SDS011;59832;51.146;14.024;2022-12-07T03:04:41;17.88;;;9.15;;
71959;SDS011;59832;51.146;14.024;2022-12-07T03:18:29;18.67;;;10.32;;
71959;SDS011;59832;51.146;14.024;2022-12-07T03:21:08;16.95;;;10.10;;
71959;SDS011;59832;51.146;14.024;2022-12-07T03:23:44;18.15;;;9.98;;
71959;SDS011;59832;51.146;14.024;2022-12-07T03:26:15;15.63;;;9.98;;
71959;SDS011;59832;51.146;14.024;2022-12-07T03:28:45;17.85;;;10.40;;
71959;SDS011;59832;51.146;14.024;2022-12-07T03:31:22;15.27;;;10.05;;
71959;SDS011;59832;51.146;14.024;2022-12-07T03:36:38;19.80;;;11.10;;
71959;SDS011;59832;51.146;14.024;2022-12-07T03:41:57;19.15;;;11.27;;
71959;SDS011;59832;51.146;14.024;2022-12-07T03:44:26;18.00;;;10.95;;
71959;SDS011;59832;51.146;14.024;2022-12-07T03:49:40;16.98;;;10.77;;
71959;SDS011;59832;51.146;14.024;2022-12-07T03:52:29;21.20;;;12.32;;
71959;SDS011;59832;51.146;14.024;2022-12-07T03:55:10;24.60;;;12.60;;
71959;SDS011;59832;51.146;14.024;2022-12-07T03:57:38;22.05;;;12.80;;
71959;SDS011;59832;51.146;14.024;2022-12-07T04:00:08;20.63;;;12.07;;
71959;SDS011;59832;51.146;14.024;2022-12-07T04:02:36;25.13;;;12.25;;
71959;SDS011;59832;51.146;14.024;2022-12-07T04:05:03;23.90;;;12.40;;
71959;SDS011;59832;51.146;14.024;2022-12-07T04:07:30;21.48;;;12.00;;
71959;SDS011;59832;51.146;14.024;2022-12-07T04:09:57;19.58;;;11.98;;
71959;SDS011;59832;51.146;14.024;2022-12-07T04:12:23;22.20;;;11.60;;
71959;SDS011;59832;51.146;14.024;2022-12-07T04:14:50;21.52;;;12.13;;
71959;SDS011;59832;51.146;14.024;2022-12-07T04:17:16;21.70;;;12.18;;
71959;SDS011;59832;51.146;14.024;2022-12-07T04:19:43;24.73;;;12.18;;
71959;SDS011;59832;51.146;14.024;2022-12-07T04:22:09;21.30;;;11.93;;
71959;SDS011;59832;51.146;14.024;2022-12-07T04:24:36;24.33;;;12.57;;
71959;SDS011;59832;51.146;14.024;2022-12-07T04:27:02;20.00;;;11.30;;
71959;SDS011;59832;51.146;14.024;2022-12-07T04:29:29;20.35;;;12.07;;
71959;SDS011;59832;51.146;14.024;2022-12-07T04:31:55;21.00;;;12.00;;
71959;SDS011;59832;51.146;14.024;2022-12-07T04:34:22;22.80;;;11.77;;
71959;SDS011;59832;51.146;14.024;2022-12-07T04:36:48;22.48;;;11.85;;
71959;SDS011;59832;51.146;14.024;2022-12-07T04:39:28;22.00;;;12.10;;
71959;SDS011;59832;51.146;14.024;2022-12-07T04:41:56;20.10;;;11.98;;
71959;SDS011;59832;51.146;14.024;2022-12-07T04:46:51;20.13;;;10.80;;
71959;SDS011;59832;51.146;14.024;2022-12-07T04:49:18;18.05;;;10.98;;
71959;SDS011;59832;51.146;14.024;2022-12-07T04:51:46;20.40;;;11.27;;
71959;SDS011;59832;51.146;14.024;2022-12-07T04:54:13;17.85;;;11.00;;
71959;SDS011;59832;51.146;14.024;2022-12-07T04:56:41;22.08;;;12.23;;
71959;SDS011;59832;51.146;14.024;2022-12-07T04:59:09;25.42;;;12.50;;
71959;SDS011;59832;51.146;14.024;2022-12-07T05:01:36;21.77;;;12.55;;
71959;SDS011;59832;51.146;14.024;2022-12-07T05:04:03;20.63;;;11.52;;
71959;SDS011;59832;51.146;14.024;2022-12-07T05:06:30;23.53;;;12.47;;
71959;SDS011;59832;51.146;14.024;2022-12-07T05:08:56;21.80;;;11.60;;
71959;SDS011;59832;51.146;14.024;2022-12-07T05:11:23;21.58;;;11.93;;
71959;SDS011;59832;51.146;14.024;2022-12-07T05:14:06;20.23;;;12.32;;
71959;SDS011;59832;51.146;14.024;2022-12-07T05:16:34;20.95;;;12.30;;
71959;SDS011;59832;51.146;14.024;2022-12-07T05:19:01;24.60;;;13.10;;
71959;SDS011;59832;51.146;14.024;2022-12-07T05:21:27;22.77;;;12.98;;
71959;SDS011;59832;51.146;14.024;2022-12-07T05:23:54;21.10;;;11.73;;
71959;SDS011;59832;51.146;14.024;2022-12-07T05:26:20;20.00;;;11.60;;
71959;SDS011;59832;51.146;14.024;2022-12-07T05:28:53;20.02;;;11.38;;
71959;SDS011;59832;51.146;14.024;2022-12-07T05:31:21;21.35;;;12.02;;
71959;SDS011;59832;51.146;14.024;2022-12-07T05:33:49;19.45;;;11.25;;
71959;SDS011;59832;51.146;14.024;2022-12-07T05:36:15;22.38;;;11.85;;
71959;SDS011;59832;51.146;14.024;2022-12-07T05:38:42;23.48;;;11.85;;
71959;SDS011;59832;51.146;14.024;2022-12-07T05:41:09;22.20;;;12.63;;
71959;SDS011;59832;51.146;14.024;2022-12-07T05:43:59;20.73;;;11.50;;
71959;SDS011;59832;51.146;14.024;2022-12-07T05:46:25;23.17;;;11.27;;
71959;SDS011;59832;51.146;14.024;2022-12-07T05:48:53;19.02;;;11.18;;
71959;SDS011;59832;51.146;14.024;2022-12-07T05:51:19;21.50;;;11.20;;
71959;SDS011;59832;51.146;14.024;2022-12-07T05:53:46;18.85;;;10.10;;
71959;SDS011;59832;51.146;14.024;2022-12-07T05:56:12;18.55;;;10.70;;
71959;SDS011;59832;51.146;14.024;2022-12-07T05:58:39;20.20;;;11.18;;
71959;SDS011;59832;51.146;14.024;2022-12-07T06:01:24;18.95;;;10.55;;
71959;SDS011;59832;51.146;14.024;2022-12-07T06:03:50;22.85;;;11.05;;
71959;SDS011;59832;51.146;14.024;2022-12-07T06:06:17;15.35;;;9.93;;
71959;SDS011;59832;51.146;14.024;2022-12-07T06:08:43;19.90;;;10.90;;
71959;SDS011;59832;51.146;14.024;2022-12-07T06:11:09;15.40;;;9.98;;
71959;SDS011;59832;51.146;14.024;2022-12-07T06:13:55;14.23;;;8.75;;
71959;SDS011;59832;51.146;14.024;2022-12-07T06:16:21;15.32;;;8.93;;
71959;SDS011;59832;51.146;14.024;2022-12-07T06:18:47;15.23;;;9.10;;
71959;SDS011;59832;51.146;14.024;2022-12-07T06:21:14;13.52;;;9.13;;
71959;SDS011;59832;51.146;14.024;2022-12-07T06:23:40;16.10;;;8.55;;
71959;SDS011;59832;51.146;14.024;2022-12-07T06:26:07;14.48;;;8.38;;
71959;SDS011;59832;51.146;14.024;2022-12-07T06:28:33;15.23;;;9.43;;
71959;SDS011;59832;51.146;14.024;2022-12-07T06:31:00;15.30;;;9.82;;
71959;SDS011;59832;51.146;14.024;2022-12-07T06:33:28;13.80;;;8.45;;
71959;SDS011;59832;51.146;14.024;2022-12-07T06:35:55;17.30;;;9.50;;
71959;SDS011;59832;51.146;14.024;2022-12-07T06:38:21;12.23;;;7.63;;
71959;SDS011;59832;51.146;14.024;2022-12-07T06:40:48;15.85;;;8.65;;
71959;SDS011;59832;51.146;14.024;2022-12-07T06:43:14;11.75;;;7.72;;
71959;SDS011;59832;51.146;14.024;2022-12-07T06:45:41;13.13;;;8.38;;
71959;SDS011;59832;51.146;14.024;2022-12-07T06:48:07;21.05;;;11.18;;
71959;SDS011;59832;51.146;14.024;2022-12-07T06:50:34;18.70;;;8.93;;
71959;SDS011;59832;51.146;14.024;2022-12-07T06:53:00;18.65;;;9.80;;
71959;SDS011;59832;51.146;14.024;2022-12-07T06:55:27;11.75;;;8.10;;
71959;SDS011;59832;51.146;14.024;2022-12-07T06:57:53;11.88;;;7.63;;
71959;SDS011;59832;51.146;14.024;2022-12-07T07:00:20;10.80;;;8.13;;
71959;SDS011;59832;51.146;14.024;2022-12-07T07:02:47;14.38;;;7.72;;
71959;SDS011;59832;51.146;14.024;2022-12-07T07:05:14;14.77;;;8.52;;
71959;SDS011;59832;51.146;14.024;2022-12-07T07:07:41;14.20;;;8.90;;
71959;SDS011;59832;51.146;14.024;2022-12-07T07:10:28;14.80;;;7.88;;
71959;SDS011;59832;51.146;14.024;2022-12-07T07:12:54;12.70;;;7.88;;
71959;SDS011;59832;51.146;14.024;2022-12-07T07:15:23;11.85;;;7.95;;
71959;SDS011;59832;51.146;14.024;2022-12-07T07:17:49;10.18;;;7.82;;
71959;SDS011;59832;51.146;14.024;2022-12-07T07:20:16;13.85;;;8.93;;
71959;SDS011;59832;51.146;14.024;2022-12-07T07:22:42;12.15;;;8.18;;
71959;SDS011;59832;51.146;14.024;2022-12-07T07:25:08;10.70;;;8.05;;
71959;SDS011;59832;51.146;14.024;2022-12-07T07:27:35;10.20;;;7.50;;
71959;SDS011;59832;51.146;14.024;2022-12-07T07:30:02;12.68;;;8.13;;
71959;SDS011;59832;51.146;14.024;2022-12-07T07:32:29;11.32;;;7.38;;
71959;SDS011;59832;51.146;14.024;2022-12-07T07:34:56;19.63;;;10.45;;
71959;SDS011;59832;51.146;14.024;2022-12-07T07:37:22;20.17;;;10.98;;
71959;SDS011;59832;51.146;14.024;2022-12-07T07:39:49;16.42;;;10.15;;
71959;SDS011;59832;51.146;14.024;2022-12-07T07:42:15;18.73;;;11.32;;
71959;SDS011;59832;51.146;14.024;2022-12-07T07:44:42;12.77;;;8.27;;
71959;SDS011;59832;51.146;14.024;2022-12-07T07:47:08;20.52;;;11.15;;
71959;SDS011;59832;51.146;14.024;2022-12-07T07:49:35;27.10;;;12.38;;
71959;SDS011;59832;51.146;14.024;2022-12-07T07:52:01;13.70;;;9.18;;
71959;SDS011;59832;51.146;14.024;2022-12-07T07:54:28;8.17;;;6.87;;
71959;SDS011;59832;51.146;14.024;2022-12-07T07:56:54;9.38;;;6.97;;
71959;SDS011;59832;51.146;14.024;2022-12-07T07:59:21;9.85;;;6.97;;
71959;SDS011;59832;51.146;14.024;2022-12-07T08:01:47;8.75;;;6.45;;
71959;SDS011;59832;51.146;14.024;2022-12-07T08:04:14;12.02;;;7.00;;
71959;SDS011;59832;51.146;14.024;2022-12-07T08:06:40;8.27;;;7.05;;
71959;SDS011;59832;51.146;14.024;2022-12-07T08:11:35;11.55;;;7.53;;
71959;SDS011;59832;51.146;14.024;2022-12-07T08:14:02;11.18;;;7.65;;
71959;SDS011;59832;51.146;14.024;2022-12-07T08:16:29;10.27;;;7.90;;
71959;SDS011;59832;51.146;14.024;2022-12-07T08:18:55;12.75;;;8.23;;
71959;SDS011;59832;51.146;14.024;2022-12-07T08:21:22;13.65;;;8.02;;
71959;SDS011;59832;51.146;14.024;2022-12-07T08:23:48;12.88;;;8.77;;
71959;SDS011;59832;51.146;14.024;2022-12-07T08:26:16;11.60;;;8.18;;
71959;SDS011;59832;51.146;14.024;2022-12-07T08:31:13;13.47;;;8.97;;
71959;SDS011;59832;51.146;14.024;2022-12-07T08:33:44;13.90;;;8.95;;
71959;SDS011;59832;51.146;14.024;2022-12-07T08:36:12;14.05;;;9.35;;
71959;SDS011;59832;51.146;14.024;2022-12-07T08:38:39;11.52;;;8.45;;
71959;SDS011;59832;51.146;14.024;2022-12-07T08:41:16;13.20;;;8.57;;
71959;SDS011;59832;51.146;14.024;2022-12-07T08:43:43;13.82;;;9.40;;
71959;SDS011;59832;51.146;14.024;2022-12-07T08:46:10;14.70;;;9.52;;
71959;SDS011;59832;51.146;14.024;2022-12-07T08:49:04;16.95;;;10.05;;
71959;SDS011;59832;51.146;14.024;2022-12-07T08:51:35;12.60;;;9.52;;
71959;SDS011;59832;51.146;14.024;2022-12-07T08:54:04;14.17;;;8.87;;
71959;SDS011;59832;51.146;14.024;2022-12-07T08:56:33;13.95;;;9.30;;
71959;SDS011;59832;51.146;14.024;2022-12-07T08:59:00;13.57;;;9.00;;
71959;SDS011;59832;51.146;14.024;2022-12-07T09:01:27;13.30;;;9.55;;
71959;SDS011;59832;51.146;14.024;2022-12-07T09:03:54;12.75;;;8.60;;
71959;SDS011;59832;51.146;14.024;2022-12-07T09:06:21;13.68;;;9.07;;
71959;SDS011;59832;51.146;14.024;2022-12-07T09:08:49;13.35;;;9.05;;
71959;SDS011;59832;51.146;14.024;2022-12-07T09:11:18;13.57;;;8.98;;
71959;SDS011;59832;51.146;14.024;2022-12-07T09:13:52;14.93;;;10.25;;
71959;SDS011;59832;51.146;14.024;2022-12-07T09:16:18;15.57;;;10.20;;
71959;SDS011;59832;51.146;14.024;2022-12-07T09:18:45;16.05;;;9.77;;
71959;SDS011;59832;51.146;14.024;2022-12-07T09:21:11;16.67;;;10.10;;
71959;SDS011;59832;51.146;14.024;2022-12-07T09:23:38;15.85;;;8.98;;
71959;SDS011;59832;51.146;14.024;2022-12-07T09:26:04;16.83;;;10.75;;
71959;SDS011;59832;51.146;14.024;2022-12-07T09:28:36;12.55;;;9.30;;
71959;SDS011;59832;51.146;14.024;2022-12-07T09:31:02;19.05;;;10.02;;
71959;SDS011;59832;51.146;14.024;2022-12-07T09:33:59;12.90;;;9.10;;
71959;SDS011;59832;51.146;14.024;2022-12-07T09:36:27;16.88;;;9.55;;
71959;SDS011;59832;51.146;14.024;2022-12-07T09:38:54;18.75;;;9.57;;
71959;SDS011;59832;51.146;14.024;2022-12-07T09:41:21;13.90;;;8.70;;
71959;SDS011;59832;51.146;14.024;2022-12-07T09:43:49;14.88;;;8.65;;
71959;SDS011;59832;51.146;14.024;2022-12-07T09:46:16;15.40;;;8.32;;
71959;SDS011;59832;51.146;14.024;2022-12-07T09:48:45;13.10;;;8.20;;
71959;SDS011;59832;51.146;14.024;2022-12-07T09:53:50;16.15;;;8.80;;
71959;SDS011;59832;51.146;14.024;2022-12-07T09:56:18;13.18;;;7.40;;
71959;SDS011;59832;51.146;14.024;2022-12-07T10:01:13;12.68;;;7.80;;
71959;SDS011;59832;51.146;14.024;2022-12-07T10:03:45;12.85;;;7.95;;
71959;SDS011;59832;51.146;14.024;2022-12-07T10:06:19;11.30;;;7.53;;
71959;SDS011;59832;51.146;14.024;2022-12-07T10:08:46;11.35;;;7.22;;
71959;SDS011;59832;51.146;14.024;2022-12-07T10:11:13;12.95;;;7.95;;
71959;SDS011;59832;51.146;14.024;2022-12-07T10:13:41;11.00;;;7.53;;
71959;SDS011;59832;51.146;14.024;2022-12-07T10:18:49;9.95;;;6.93;;
71959;SDS011;59832;51.146;14.024;2022-12-07T10:24:12;10.60;;;6.57;;
71959;SDS011;59832;51.146;14.024;2022-12-07T10:29:29;9.40;;;6.47;;
71959;SDS011;59832;51.146;14.024;2022-12-07T10:32:01;12.90;;;6.05;;
71959;SDS011;59832;51.146;14.024;2022-12-07T10:34:30;8.27;;;6.35;;
71959;SDS011;59832;51.146;14.024;2022-12-07T10:37:14;9.10;;;6.22;;
71959;SDS011;59832;51.146;14.024;2022-12-07T10:39:47;14.02;;;6.25;;
71959;SDS011;59832;51.146;14.024;2022-12-07T10:42:23;11.77;;;6.32;;
71959;SDS011;59832;51.146;14.024;2022-12-07T10:48:02;8.65;;;5.50;;
71959;SDS011;59832;51.146;14.024;2022-12-07T10:58:44;5.78;;;4.38;;
71959;SDS011;59832;51.146;14.024;2022-12-07T11:01:37;7.15;;;4.07;;
71959;SDS011;59832;51.146;14.024;2022-12-07T11:17:43;8.48;;;4.47;;
71959;SDS011;59832;51.146;14.024;2022-12-07T11:33:51;5.63;;;4.18;;
71959;SDS011;59832;51.146;14.024;2022-12-07T11:36:36;7.53;;;5.18;;
71959;SDS011;59832;51.146;14.024;2022-12-07T11:39:23;7.68;;;6.10;;
71959;SDS011;59832;51.146;14.024;2022-12-07T11:41:55;11.52;;;5.88;;
71959;SDS011;59832;51.146;14.024;2022-12-07T11:47:09;11.93;;;6.82;;
71959;SDS011;59832;51.146;14.024;2022-12-07T11:49:43;11.07;;;6.03;;
71959;SDS011;59832;51.146;14.024;2022-12-07T11:52:20;12.02;;;7.13;;
71959;SDS011;59832;51.146;14.024;2022-12-07T11:55:02;11.90;;;6.53;;
71959;SDS011;59832;51.146;14.024;2022-12-07T11:57:35;10.13;;;6.53;;
71959;SDS011;59832;51.146;14.024;2022-12-07T12:00:15;9.85;;;6.68;;
71959;SDS011;59832;51.146;14.024;2022-12-07T12:02:44;8.57;;;6.25;;
71959;SDS011;59832;51.146;14.024;2022-12-07T12:05:16;10.18;;;5.93;;
71959;SDS011;59832;51.146;14.024;2022-12-07T12:08:09;7.85;;;5.38;;
71959;SDS011;59832;51.146;14.024;2022-12-07T12:11:13;8.35;;;5.15;;
71959;SDS011;59832;51.146;14.024;2022-12-07T12:25:48;10.02;;;5.15;;
71959;SDS011;59832;51.146;14.024;2022-12-07T12:28:24;7.13;;;5.47;;
71959;SDS011;59832;51.146;14.024;2022-12-07T12:33:44;6.95;;;5.13;;
71959;SDS011;59832;51.146;14.024;2022-12-07T12:38:49;7.25;;;5.57;;
71959;SDS011;59832;51.146;14.024;2022-12-07T12:46:57;8.75;;;5.55;;
71959;SDS011;59832;51.146;14.024;2022-12-07T12:49:33;9.75;;;5.85;;
71959;SDS011;59832;51.146;14.024;2022-12-07T12:57:48;5.07;;;4.10;;
71959;SDS011;59832;51.146;14.024;2022-12-07T13:04:01;4.45;;;4.05;;
71959;SDS011;59832;51.146;14.024;2022-12-07T13:06:40;6.13;;;4.60;;
71959;SDS011;59832;51.146;14.024;2022-12-07T13:09:17;5.85;;;4.80;;
71959;SDS011;59832;51.146;14.024;2022-12-07T13:11:49;5.30;;;4.68;;
71959;SDS011;59832;51.146;14.024;2022-12-07T13:14:56;6.43;;;4.85;;
71959;SDS011;59832;51.146;14.024;2022-12-07T13:19:58;6.65;;;5.00;;
71959;SDS011;59832;51.146;14.024;2022-12-07T13:24:57;5.63;;;5.13;;
71959;SDS011;59832;51.146;14.024;2022-12-07T13:27:59;8.75;;;4.95;;
71959;SDS011;59832;51.146;14.024;2022-12-07T13:30:33;6.80;;;5.10;;
71959;SDS011;59832;51.146;14.024;2022-12-07T13:33:25;7.00;;;5.55;;
71959;SDS011;59832;51.146;14.024;2022-12-07T13:35:54;8.55;;;5.38;;
71959;SDS011;59832;51.146;14.024;2022-12-07T13:41:15;7.63;;;5.78;;
71959;SDS011;59832;51.146;14.024;2022-12-07T13:46:16;6.40;;;5.80;;
71959;SDS011;59832;51.146;14.024;2022-12-07T13:48:47;6.65;;;5.95;;
71959;SDS011;59832;51.146;14.024;2022-12-07T13:51:21;6.55;;;5.30;;
71959;SDS011;59832;51.146;14.024;2022-12-07T13:53:52;8.07;;;5.68;;
71959;SDS011;59832;51.146;14.024;2022-12-07T13:56:25;13.50;;;8.80;;
71959;SDS011;59832;51.146;14.024;2022-12-07T13:58:55;9.10;;;7.60;;
71959;SDS011;59832;51.146;14.024;2022-12-07T14:01:21;9.93;;;6.57;;
71959;SDS011;59832;51.146;14.024;2022-12-07T14:03:48;9.17;;;6.83;;
71959;SDS011;59832;51.146;14.024;2022-12-07T14:06:25;6.95;;;6.13;;
71959;SDS011;59832;51.146;14.024;2022-12-07T14:09:16;8.70;;;6.40;;
71959;SDS011;59832;51.146;14.024;2022-12-07T14:11:44;10.48;;;6.70;;
71959;SDS011;59832;51.146;14.024;2022-12-07T14:14:22;7.05;;;5.78;;
71959;SDS011;59832;51.146;14.024;2022-12-07T14:17:25;5.80;;;5.18;;
71959;SDS011;59832;51.146;14.024;2022-12-07T14:19:51;5.65;;;5.13;;
71959;SDS011;59832;51.146;14.024;2022-12-07T14:22:38;7.90;;;4.47;;
71959;SDS011;59832;51.146;14.024;2022-12-07T14:25:24;5.82;;;4.75;;
71959;SDS011;59832;51.146;14.024;2022-12-07T14:27:57;7.35;;;4.38;;
71959;SDS011;59832;51.146;14.024;2022-12-07T14:30:28;5.38;;;4.00;;
71959;SDS011;59832;51.146;14.024;2022-12-07T14:33:01;3.78;;;3.47;;
71959;SDS011;59832;51.146;14.024;2022-12-07T14:35:30;5.38;;;3.85;;
71959;SDS011;59832;51.146;14.024;2022-12-07T14:37:57;5.15;;;3.70;;
71959;SDS011;59832;51.146;14.024;2022-12-07T14:40:25;8.33;;;4.10;;
71959;SDS011;59832;51.146;14.024;2022-12-07T14:42:57;6.45;;;4.18;;
71959;SDS011;59832;51.146;14.024;2022-12-07T14:45:32;4.20;;;3.70;;
71959;SDS011;59832;51.146;14.024;2022-12-07T14:47:59;6.32;;;4.22;;
71959;SDS011;59832;51.146;14.024;2022-12-07T14:50:46;6.22;;;4.07;;
71959;SDS011;59832;51.146;14.024;2022-12-07T14:53:40;6.60;;;4.20;;
71959;SDS011;59832;51.146;14.024;2022-12-07T14:56:18;5.60;;;3.97;;
71959;SDS011;59832;51.146;14.024;2022-12-07T14:58:44;7.32;;;4.30;;
71959;SDS011;59832;51.146;14.024;2022-12-07T15:01:14;5.13;;;4.13;;
71959;SDS011;59832;51.146;14.024;2022-12-07T15:03:40;7.35;;;5.18;;
71959;SDS011;59832;51.146;14.024;2022-12-07T15:06:07;14.05;;;7.20;;
71959;SDS011;59832;51.146;14.024;2022-12-07T15:08:33;12.95;;;8.30;;
71959;SDS011;59832;51.146;14.024;2022-12-07T15:11:00;9.40;;;6.20;;
71959;SDS011;59832;51.146;14.024;2022-12-07T15:13:26;9.60;;;7.25;;
71959;SDS011;59832;51.146;14.024;2022-12-07T15:16:13;17.73;;;8.60;;
71959;SDS011;59832;51.146;14.024;2022-12-07T15:18:41;11.63;;;7.90;;
71959;SDS011;59832;51.146;14.024;2022-12-07T15:21:23;9.00;;;7.47;;
71959;SDS011;59832;51.146;14.024;2022-12-07T15:23:50;11.40;;;8.13;;
71959;SDS011;59832;51.146;14.024;2022-12-07T15:26:16;6.43;;;5.38;;
71959;SDS011;59832;51.146;14.024;2022-12-07T15:28:43;5.28;;;3.88;;
71959;SDS011;59832;51.146;14.024;2022-12-07T15:31:13;7.78;;;2.95;;
71959;SDS011;59832;51.146;14.024;2022-12-07T15:34:00;2.40;;;2.17;;
71959;SDS011;59832;51.146;14.024;2022-12-07T15:36:27;2.70;;;2.30;;
71959;SDS011;59832;51.146;14.024;2022-12-07T15:38:55;3.50;;;2.55;;
71959;SDS011;59832;51.146;14.024;2022-12-07T15:41:39;3.08;;;2.60;;
71959;SDS011;59832;51.146;14.024;2022-12-07T15:44:06;3.65;;;3.25;;
71959;SDS011;59832;51.146;14.024;2022-12-07T15:46:56;3.67;;;3.38;;
71959;SDS011;59832;51.146;14.024;2022-12-07T15:49:22;6.63;;;4.70;;
71959;SDS011;59832;51.146;14.024;2022-12-07T15:51:49;5.03;;;3.85;;
71959;SDS011;59832;51.146;14.024;2022-12-07T15:54:19;10.35;;;5.38;;
71959;SDS011;59832;51.146;14.024;2022-12-07T15:56:47;7.65;;;4.45;;
71959;SDS011;59832;51.146;14.024;2022-12-07T15:59:14;6.00;;;4.47;;
71959;SDS011;59832;51.146;14.024;2022-12-07T16:01:41;5.53;;;4.57;;
71959;SDS011;59832;51.146;14.024;2022-12-07T16:04:08;5.23;;;4.53;;
71959;SDS011;59832;51.146;14.024;2022-12-07T16:06:34;5.67;;;4.53;;
71959;SDS011;59832;51.146;14.024;2022-12-07T16:09:01;9.90;;;4.97;;
71959;SDS011;59832;51.146;14.024;2022-12-07T16:11:28;6.97;;;5.90;;
71959;SDS011;59832;51.146;14.024;2022-12-07T16:13:55;10.27;;;5.73;;
71959;SDS011;59832;51.146;14.024;2022-12-07T16:16:21;9.80;;;6.50;;
71959;SDS011;59832;51.146;14.024;2022-12-07T16:18:49;11.48;;;6.90;;
71959;SDS011;59832;51.146;14.024;2022-12-07T16:23:50;7.30;;;6.30;;
71959;SDS011;59832;51.146;14.024;2022-12-07T16:26:17;13.13;;;7.05;;
71959;SDS011;59832;51.146;14.024;2022-12-07T16:28:47;9.55;;;6.43;;
71959;SDS011;59832;51.146;14.024;2022-12-07T16:31:19;12.77;;;8.15;;
71959;SDS011;59832;51.146;14.024;2022-12-07T16:33:47;15.75;;;7.63;;
71959;SDS011;59832;51.146;14.024;2022-12-07T16:36:15;13.25;;;8.43;;
71959;SDS011;59832;51.146;14.024;2022-12-07T16:39:03;14.55;;;8.82;;
71959;SDS011;59832;51.146;14.024;2022-12-07T16:43:57;11.45;;;7.25;;
71959;SDS011;59832;51.146;14.024;2022-12-07T16:46:29;12.02;;;7.97;;
71959;SDS011;59832;51.146;14.024;2022-12-07T16:48:58;10.15;;;7.53;;
71959;SDS011;59832;51.146;14.024;2022-12-07T16:51:25;13.05;;;7.72;;
71959;SDS011;59832;51.146;14.024;2022-12-07T16:53:52;11.00;;;8.38;;
71959;SDS011;59832;51.146;14.024;2022-12-07T16:58:45;13.45;;;7.60;;
71959;SDS011;59832;51.146;14.024;2022-12-07T17:01:17;13.55;;;9.68;;
71959;SDS011;59832;51.146;14.024;2022-12-07T17:03:45;15.52;;;9.32;;
71959;SDS011;59832;51.146;14.024;2022-12-07T17:06:13;15.05;;;10.68;;
71959;SDS011;59832;51.146;14.024;2022-12-07T17:08:44;14.23;;;10.57;;
71959;SDS011;59832;51.146;14.024;2022-12-07T17:11:11;15.07;;;9.77;;
71959;SDS011;59832;51.146;14.024;2022-12-07T17:13:39;16.70;;;9.43;;
71959;SDS011;59832;51.146;14.024;2022-12-07T17:16:24;13.90;;;9.10;;
71959;SDS011;59832;51.146;14.024;2022-12-07T17:18:51;13.33;;;9.30;;
71959;SDS011;59832;51.146;14.024;2022-12-07T17:21:18;13.73;;;9.50;;
71959;SDS011;59832;51.146;14.024;2022-12-07T17:23:44;11.80;;;8.60;;